sensor_id;sensor_type;location;lat;lon;timestamp;temperature;humidity
64997;SHT31;51545;51.568;6.998;2023-03-03T00:02:15;1.99;91.90
64997;SHT31;51545;51.568;6.998;2023-03-03T00:04:40;1.98;91.79
64997;SHT31;51545;51.568;6.998;2023-03-03T00:07:06;2.02;91.80
64997;SHT31;51545;51.568;6.998;2023-03-03T00:09:31;2.02;91.91
64997;SHT31;51545;51.568;6.998;2023-03-03T00:11:57;1.99;91.90
64997;SHT31;51545;51.568;6.998;2023-03-03T00:14:27;1.97;91.96
64997;SHT31;51545;51.568;6.998;2023-03-03T00:17:00;2.03;91.91
64997;SHT31;51545;51.568;6.998;2023-03-03T00:19:31;2.03;91.80
64997;SHT31;51545;51.568;6.998;2023-03-03T00:22:06;2.09;91.79
64997;SHT31;51545;51.568;6.998;2023-03-03T00:24:41;2.16;91.62
64997;SHT31;51545;51.568;6.998;2023-03-03T00:27:16;2.08;91.57
64997;SHT31;51545;51.568;6.998;2023-03-03T00:30:00;2.01;92.05
64997;SHT31;51545;51.568;6.998;2023-03-03T00:34:57;2.01;92.07
64997;SHT31;51545;51.568;6.998;2023-03-03T00:37:41;1.99;92.01
64997;SHT31;51545;51.568;6.998;2023-03-03T00:40:23;1.99;91.87
64997;SHT31;51545;51.568;6.998;2023-03-03T00:42:56;1.94;91.92
64997;SHT31;51545;51.568;6.998;2023-03-03T00:45:38;2.01;91.93
64997;SHT31;51545;51.568;6.998;2023-03-03T00:50:47;1.95;92.00
64997;SHT31;51545;51.568;6.998;2023-03-03T00:53:15;2.09;91.87
64997;SHT31;51545;51.568;6.998;2023-03-03T00:55:42;1.97;91.67
64997;SHT31;51545;51.568;6.998;2023-03-03T00:58:08;1.94;91.52
64997;SHT31;51545;51.568;6.998;2023-03-03T01:00:34;1.98;91.72
64997;SHT31;51545;51.568;6.998;2023-03-03T01:03:07;2.05;91.72
64997;SHT31;51545;51.568;6.998;2023-03-03T01:05:36;2.02;91.68
64997;SHT31;51545;51.568;6.998;2023-03-03T01:08:02;2.01;91.78
64997;SHT31;51545;51.568;6.998;2023-03-03T01:10:29;1.98;91.69
64997;SHT31;51545;51.568;6.998;2023-03-03T01:12:56;1.90;91.88
64997;SHT31;51545;51.568;6.998;2023-03-03T01:15:22;1.98;92.07
64997;SHT31;51545;51.568;6.998;2023-03-03T01:17:49;1.92;91.82
64997;SHT31;51545;51.568;6.998;2023-03-03T01:20:15;1.83;91.94
64997;SHT31;51545;51.568;6.998;2023-03-03T01:22:41;1.81;92.33
64997;SHT31;51545;51.568;6.998;2023-03-03T01:25:07;1.85;92.33
64997;SHT31;51545;51.568;6.998;2023-03-03T01:27:34;1.88;92.28
64997;SHT31;51545;51.568;6.998;2023-03-03T01:30:00;1.84;92.14
64997;SHT31;51545;51.568;6.998;2023-03-03T01:32:26;1.81;92.34
64997;SHT31;51545;51.568;6.998;2023-03-03T01:34:52;1.85;92.40
64997;SHT31;51545;51.568;6.998;2023-03-03T01:37:18;1.87;92.23
64997;SHT31;51545;51.568;6.998;2023-03-03T01:39:51;1.87;92.25
64997;SHT31;51545;51.568;6.998;2023-03-03T01:42:17;1.84;92.23
64997;SHT31;51545;51.568;6.998;2023-03-03T01:44:43;1.85;92.28
64997;SHT31;51545;51.568;6.998;2023-03-03T01:47:14;1.67;92.26
64997;SHT31;51545;51.568;6.998;2023-03-03T01:55:12;1.66;92.32
64997;SHT31;51545;51.568;6.998;2023-03-03T01:57:45;1.64;92.23
64997;SHT31;51545;51.568;6.998;2023-03-03T02:00:17;1.50;92.16
64997;SHT31;51545;51.568;6.998;2023-03-03T02:02:43;1.47;92.39
64997;SHT31;51545;51.568;6.998;2023-03-03T02:05:10;1.49;92.69
64997;SHT31;51545;51.568;6.998;2023-03-03T02:07:37;1.52;92.46
64997;SHT31;51545;51.568;6.998;2023-03-03T02:12:38;1.31;92.76
64997;SHT31;51545;51.568;6.998;2023-03-03T02:15:52;1.26;93.13
64997;SHT31;51545;51.568;6.998;2023-03-03T02:17:54;1.36;92.87
64997;SHT31;51545;51.568;6.998;2023-03-03T02:23:12;1.19;93.33
64997;SHT31;51545;51.568;6.998;2023-03-03T02:28:21;1.29;93.15
64997;SHT31;51545;51.568;6.998;2023-03-03T02:30:48;1.25;92.99
64997;SHT31;51545;51.568;6.998;2023-03-03T02:33:14;1.21;93.00
64997;SHT31;51545;51.568;6.998;2023-03-03T02:35:40;1.09;93.37
64997;SHT31;51545;51.568;6.998;2023-03-03T02:46:17;1.05;93.47
64997;SHT31;51545;51.568;6.998;2023-03-03T02:48:43;1.14;93.62
64997;SHT31;51545;51.568;6.998;2023-03-03T02:51:08;1.08;94.00
64997;SHT31;51545;51.568;6.998;2023-03-03T02:53:34;1.11;93.87
64997;SHT31;51545;51.568;6.998;2023-03-03T02:55:59;1.12;93.91
64997;SHT31;51545;51.568;6.998;2023-03-03T02:58:25;1.11;93.99
64997;SHT31;51545;51.568;6.998;2023-03-03T03:00:50;1.21;93.92
64997;SHT31;51545;51.568;6.998;2023-03-03T03:03:16;1.36;93.92
64997;SHT31;51545;51.568;6.998;2023-03-03T03:05:41;1.38;93.50
64997;SHT31;51545;51.568;6.998;2023-03-03T03:08:07;1.45;93.44
64997;SHT31;51545;51.568;6.998;2023-03-03T03:10:32;1.34;93.25
64997;SHT31;51545;51.568;6.998;2023-03-03T03:12:58;1.38;93.38
64997;SHT31;51545;51.568;6.998;2023-03-03T03:15:23;1.49;93.30
64997;SHT31;51545;51.568;6.998;2023-03-03T03:17:49;1.49;93.05
64997;SHT31;51545;51.568;6.998;2023-03-03T03:20:15;1.46;92.85
64997;SHT31;51545;51.568;6.998;2023-03-03T03:22:41;1.40;92.74
64997;SHT31;51545;51.568;6.998;2023-03-03T03:25:07;1.36;92.79
64997;SHT31;51545;51.568;6.998;2023-03-03T03:27:32;1.45;92.87
64997;SHT31;51545;51.568;6.998;2023-03-03T03:29:58;1.46;92.82
64997;SHT31;51545;51.568;6.998;2023-03-03T03:32:23;1.40;92.69
64997;SHT31;51545;51.568;6.998;2023-03-03T03:34:49;1.40;92.76
64997;SHT31;51545;51.568;6.998;2023-03-03T03:37:14;1.32;92.66
64997;SHT31;51545;51.568;6.998;2023-03-03T03:39:40;1.31;92.69
64997;SHT31;51545;51.568;6.998;2023-03-03T03:42:05;1.29;92.70
64997;SHT31;51545;51.568;6.998;2023-03-03T03:44:31;1.31;92.90
64997;SHT31;51545;51.568;6.998;2023-03-03T03:46:56;1.19;93.02
64997;SHT31;51545;51.568;6.998;2023-03-03T03:49:22;1.04;93.34
64997;SHT31;51545;51.568;6.998;2023-03-03T03:51:47;1.04;93.68
64997;SHT31;51545;51.568;6.998;2023-03-03T03:54:13;0.91;94.09
64997;SHT31;51545;51.568;6.998;2023-03-03T03:56:38;0.95;94.10
64997;SHT31;51545;51.568;6.998;2023-03-03T03:59:07;0.97;94.26
64997;SHT31;51545;51.568;6.998;2023-03-03T04:01:33;1.02;94.02
64997;SHT31;51545;51.568;6.998;2023-03-03T04:03:58;1.04;94.10
64997;SHT31;51545;51.568;6.998;2023-03-03T04:06:24;0.98;94.08
64997;SHT31;51545;51.568;6.998;2023-03-03T04:08:49;1.09;94.16
64997;SHT31;51545;51.568;6.998;2023-03-03T04:11:15;1.15;94.04
64997;SHT31;51545;51.568;6.998;2023-03-03T04:13:40;1.19;93.93
64997;SHT31;51545;51.568;6.998;2023-03-03T04:16:06;1.19;93.76
64997;SHT31;51545;51.568;6.998;2023-03-03T04:18:32;1.14;93.71
64997;SHT31;51545;51.568;6.998;2023-03-03T04:20:58;1.18;93.71
64997;SHT31;51545;51.568;6.998;2023-03-03T04:23:24;1.08;93.85
64997;SHT31;51545;51.568;6.998;2023-03-03T04:25:49;1.07;93.88
64997;SHT31;51545;51.568;6.998;2023-03-03T04:28:15;1.08;94.08
64997;SHT31;51545;51.568;6.998;2023-03-03T04:30:41;1.08;94.11
64997;SHT31;51545;51.568;6.998;2023-03-03T04:33:06;1.15;94.01
64997;SHT31;51545;51.568;6.998;2023-03-03T04:35:32;1.19;94.04
64997;SHT31;51545;51.568;6.998;2023-03-03T04:37:58;1.08;93.84
64997;SHT31;51545;51.568;6.998;2023-03-03T04:40:23;1.14;93.82
64997;SHT31;51545;51.568;6.998;2023-03-03T04:42:49;1.14;93.86
64997;SHT31;51545;51.568;6.998;2023-03-03T04:45:15;1.17;93.82
64997;SHT31;51545;51.568;6.998;2023-03-03T04:47:40;1.17;93.63
64997;SHT31;51545;51.568;6.998;2023-03-03T04:50:06;1.11;93.74
64997;SHT31;51545;51.568;6.998;2023-03-03T04:52:33;1.19;93.89
64997;SHT31;51545;51.568;6.998;2023-03-03T04:54:58;1.24;93.80
64997;SHT31;51545;51.568;6.998;2023-03-03T04:57:24;1.22;93.64
64997;SHT31;51545;51.568;6.998;2023-03-03T04:59:49;1.28;93.63
64997;SHT31;51545;51.568;6.998;2023-03-03T05:02:15;1.22;93.47
64997;SHT31;51545;51.568;6.998;2023-03-03T05:04:41;1.28;93.56
64997;SHT31;51545;51.568;6.998;2023-03-03T05:07:06;1.24;93.38
64997;SHT31;51545;51.568;6.998;2023-03-03T05:09:32;1.19;93.26
64997;SHT31;51545;51.568;6.998;2023-03-03T05:11:58;1.05;93.41
64997;SHT31;51545;51.568;6.998;2023-03-03T05:14:23;1.11;93.66
64997;SHT31;51545;51.568;6.998;2023-03-03T05:16:49;1.07;93.77
64997;SHT31;51545;51.568;6.998;2023-03-03T05:19:14;1.12;93.78
64997;SHT31;51545;51.568;6.998;2023-03-03T05:21:39;1.21;93.67
64997;SHT31;51545;51.568;6.998;2023-03-03T05:24:07;1.09;93.36
64997;SHT31;51545;51.568;6.998;2023-03-03T05:26:33;1.08;93.56
64997;SHT31;51545;51.568;6.998;2023-03-03T05:28:59;1.01;93.73
64997;SHT31;51545;51.568;6.998;2023-03-03T05:31:24;1.01;93.67
64997;SHT31;51545;51.568;6.998;2023-03-03T05:33:51;1.14;93.34
64997;SHT31;51545;51.568;6.998;2023-03-03T05:36:17;1.22;92.99
64997;SHT31;51545;51.568;6.998;2023-03-03T05:38:43;1.26;92.47
64997;SHT31;51545;51.568;6.998;2023-03-03T05:41:08;1.25;92.11
64997;SHT31;51545;51.568;6.998;2023-03-03T05:43:34;1.28;91.98
64997;SHT31;51545;51.568;6.998;2023-03-03T05:45:59;1.26;91.87
64997;SHT31;51545;51.568;6.998;2023-03-03T05:48:25;1.40;91.89
64997;SHT31;51545;51.568;6.998;2023-03-03T05:50:51;1.43;91.65
64997;SHT31;51545;51.568;6.998;2023-03-03T05:53:17;1.39;91.57
64997;SHT31;51545;51.568;6.998;2023-03-03T05:55:42;1.43;91.50
64997;SHT31;51545;51.568;6.998;2023-03-03T05:58:08;1.15;91.58
64997;SHT31;51545;51.568;6.998;2023-03-03T06:00:33;1.18;91.84
64997;SHT31;51545;51.568;6.998;2023-03-03T06:02:59;1.12;91.99
64997;SHT31;51545;51.568;6.998;2023-03-03T06:05:26;1.25;92.00
64997;SHT31;51545;51.568;6.998;2023-03-03T06:07:52;1.17;91.90
64997;SHT31;51545;51.568;6.998;2023-03-03T06:10:17;1.17;92.00
64997;SHT31;51545;51.568;6.998;2023-03-03T06:12:43;1.08;92.28
64997;SHT31;51545;51.568;6.998;2023-03-03T06:15:08;1.17;92.18
64997;SHT31;51545;51.568;6.998;2023-03-03T06:17:34;1.26;91.89
64997;SHT31;51545;51.568;6.998;2023-03-03T06:20:00;1.28;91.77
64997;SHT31;51545;51.568;6.998;2023-03-03T06:22:25;1.34;91.61
64997;SHT31;51545;51.568;6.998;2023-03-03T06:24:51;1.29;91.41
64997;SHT31;51545;51.568;6.998;2023-03-03T06:27:18;1.39;91.39
64997;SHT31;51545;51.568;6.998;2023-03-03T06:29:44;1.40;91.23
64997;SHT31;51545;51.568;6.998;2023-03-03T06:32:10;1.43;91.23
64997;SHT31;51545;51.568;6.998;2023-03-03T06:34:36;1.35;91.16
64997;SHT31;51545;51.568;6.998;2023-03-03T06:37:01;1.39;91.37
64997;SHT31;51545;51.568;6.998;2023-03-03T06:39:27;1.42;91.27
64997;SHT31;51545;51.568;6.998;2023-03-03T06:41:52;1.31;91.16
64997;SHT31;51545;51.568;6.998;2023-03-03T06:44:18;1.22;91.41
64997;SHT31;51545;51.568;6.998;2023-03-03T06:46:43;1.22;91.58
64997;SHT31;51545;51.568;6.998;2023-03-03T06:49:09;1.17;91.72
64997;SHT31;51545;51.568;6.998;2023-03-03T06:51:35;1.24;91.78
64997;SHT31;51545;51.568;6.998;2023-03-03T06:54:11;1.18;91.99
64997;SHT31;51545;51.568;6.998;2023-03-03T06:56:38;1.18;92.10
64997;SHT31;51545;51.568;6.998;2023-03-03T06:59:05;1.25;92.13
64997;SHT31;51545;51.568;6.998;2023-03-03T07:01:37;1.24;92.23
64997;SHT31;51545;51.568;6.998;2023-03-03T07:04:17;1.26;92.04
64997;SHT31;51545;51.568;6.998;2023-03-03T07:06:46;1.24;92.27
64997;SHT31;51545;51.568;6.998;2023-03-03T07:09:14;1.36;92.35
64997;SHT31;51545;51.568;6.998;2023-03-03T07:11:46;1.47;91.99
64997;SHT31;51545;51.568;6.998;2023-03-03T07:14:13;1.57;91.79
64997;SHT31;51545;51.568;6.998;2023-03-03T07:16:42;1.59;91.44
64997;SHT31;51545;51.568;6.998;2023-03-03T07:19:29;1.63;91.43
64997;SHT31;51545;51.568;6.998;2023-03-03T07:21:57;1.64;91.21
64997;SHT31;51545;51.568;6.998;2023-03-03T07:24:39;1.67;91.19
64997;SHT31;51545;51.568;6.998;2023-03-03T07:27:21;1.71;91.16
64997;SHT31;51545;51.568;6.998;2023-03-03T07:29:49;1.78;91.05
64997;SHT31;51545;51.568;6.998;2023-03-03T07:34:54;1.81;90.73
64997;SHT31;51545;51.568;6.998;2023-03-03T07:37:36;1.77;90.53
64997;SHT31;51545;51.568;6.998;2023-03-03T07:40:45;1.78;90.58
64997;SHT31;51545;51.568;6.998;2023-03-03T07:42:57;1.78;90.72
64997;SHT31;51545;51.568;6.998;2023-03-03T07:45:27;1.77;90.77
64997;SHT31;51545;51.568;6.998;2023-03-03T07:48:09;1.74;90.55
64997;SHT31;51545;51.568;6.998;2023-03-03T07:50:43;1.81;90.81
64997;SHT31;51545;51.568;6.998;2023-03-03T07:53:14;1.83;90.54
64997;SHT31;51545;51.568;6.998;2023-03-03T07:55:50;1.70;90.48
64997;SHT31;51545;51.568;6.998;2023-03-03T07:58:33;1.74;90.87
64997;SHT31;51545;51.568;6.998;2023-03-03T08:06:58;1.88;90.19
64997;SHT31;51545;51.568;6.998;2023-03-03T08:09:36;1.88;90.21
64997;SHT31;51545;51.568;6.998;2023-03-03T08:14:36;2.01;90.33
64997;SHT31;51545;51.568;6.998;2023-03-03T08:17:21;2.01;90.00
64997;SHT31;51545;51.568;6.998;2023-03-03T08:19:52;2.09;90.04
64997;SHT31;51545;51.568;6.998;2023-03-03T08:22:34;2.08;89.75
64997;SHT31;51545;51.568;6.998;2023-03-03T08:25:00;2.08;89.66
64997;SHT31;51545;51.568;6.998;2023-03-03T08:27:26;2.08;89.80
64997;SHT31;51545;51.568;6.998;2023-03-03T08:29:52;2.09;89.94
64997;SHT31;51545;51.568;6.998;2023-03-03T08:32:18;2.08;89.98
64997;SHT31;51545;51.568;6.998;2023-03-03T08:34:43;2.22;90.04
64997;SHT31;51545;51.568;6.998;2023-03-03T08:37:09;2.25;89.71
64997;SHT31;51545;51.568;6.998;2023-03-03T08:39:34;2.19;89.19
64997;SHT31;51545;51.568;6.998;2023-03-03T08:42:00;2.16;89.32
64997;SHT31;51545;51.568;6.998;2023-03-03T08:44:26;2.22;89.08
64997;SHT31;51545;51.568;6.998;2023-03-03T08:46:51;2.26;88.82
64997;SHT31;51545;51.568;6.998;2023-03-03T08:49:17;2.38;88.47
64997;SHT31;51545;51.568;6.998;2023-03-03T08:51:42;2.09;88.11
64997;SHT31;51545;51.568;6.998;2023-03-03T08:54:08;2.09;88.50
64997;SHT31;51545;51.568;6.998;2023-03-03T08:56:33;2.22;88.60
64997;SHT31;51545;51.568;6.998;2023-03-03T08:58:59;2.33;88.18
64997;SHT31;51545;51.568;6.998;2023-03-03T09:01:24;2.45;87.82
64997;SHT31;51545;51.568;6.998;2023-03-03T09:03:50;2.13;88.40
64997;SHT31;51545;51.568;6.998;2023-03-03T09:06:15;2.23;88.67
64997;SHT31;51545;51.568;6.998;2023-03-03T09:08:41;2.19;88.41
64997;SHT31;51545;51.568;6.998;2023-03-03T09:11:13;2.02;88.56
64997;SHT31;51545;51.568;6.998;2023-03-03T09:13:39;2.03;88.56
64997;SHT31;51545;51.568;6.998;2023-03-03T09:16:14;2.12;88.92
64997;SHT31;51545;51.568;6.998;2023-03-03T09:18:40;2.08;88.84
64997;SHT31;51545;51.568;6.998;2023-03-03T09:23:56;2.29;88.76
64997;SHT31;51545;51.568;6.998;2023-03-03T09:26:29;2.39;88.25
64997;SHT31;51545;51.568;6.998;2023-03-03T09:31:37;2.30;88.63
64997;SHT31;51545;51.568;6.998;2023-03-03T09:36:46;2.25;89.24
64997;SHT31;51545;51.568;6.998;2023-03-03T10:06:44;2.99;87.85
64997;SHT31;51545;51.568;6.998;2023-03-03T10:09:36;3.01;87.84
64997;SHT31;51545;51.568;6.998;2023-03-03T10:32:25;2.95;86.39
64997;SHT31;51545;51.568;6.998;2023-03-03T10:40:23;2.96;87.57
64997;SHT31;51545;51.568;6.998;2023-03-03T11:02:19;3.24;85.62
64997;SHT31;51545;51.568;6.998;2023-03-03T11:15:50;3.88;84.81
64997;SHT31;51545;51.568;6.998;2023-03-03T11:32:16;4.32;81.59
64997;SHT31;51545;51.568;6.998;2023-03-03T11:37:14;4.33;81.70
64997;SHT31;51545;51.568;6.998;2023-03-03T11:39:47;4.60;81.00
64997;SHT31;51545;51.568;6.998;2023-03-03T11:42:36;4.78;80.57
64997;SHT31;51545;51.568;6.998;2023-03-03T11:47:58;5.20;78.30
64997;SHT31;51545;51.568;6.998;2023-03-03T11:50:35;5.28;78.02
64997;SHT31;51545;51.568;6.998;2023-03-03T11:55:55;4.89;77.71
64997;SHT31;51545;51.568;6.998;2023-03-03T11:58:33;5.20;78.34
64997;SHT31;51545;51.568;6.998;2023-03-03T12:03:57;5.37;78.57
64997;SHT31;51545;51.568;6.998;2023-03-03T12:14:44;5.78;76.07
64997;SHT31;51545;51.568;6.998;2023-03-03T12:23:24;8.21;69.57
64997;SHT31;51545;51.568;6.998;2023-03-03T12:26:11;9.97;64.23
64997;SHT31;51545;51.568;6.998;2023-03-03T12:28:55;10.25;62.90
64997;SHT31;51545;51.568;6.998;2023-03-03T12:36:54;9.73;62.58
64997;SHT31;51545;51.568;6.998;2023-03-03T12:42:03;10.91;59.65
64997;SHT31;51545;51.568;6.998;2023-03-03T12:47:50;9.52;61.19
64997;SHT31;51545;51.568;6.998;2023-03-03T12:55:52;8.57;64.99
64997;SHT31;51545;51.568;6.998;2023-03-03T13:07:09;9.34;64.08
64997;SHT31;51545;51.568;6.998;2023-03-03T13:09:44;9.29;63.52
64997;SHT31;51545;51.568;6.998;2023-03-03T13:12:33;9.62;62.92
64997;SHT31;51545;51.568;6.998;2023-03-03T13:23:34;11.11;60.54
64997;SHT31;51545;51.568;6.998;2023-03-03T13:26:15;12.71;55.69
64997;SHT31;51545;51.568;6.998;2023-03-03T13:29:01;13.11;54.79
64997;SHT31;51545;51.568;6.998;2023-03-03T13:31:50;13.26;53.31
64997;SHT31;51545;51.568;6.998;2023-03-03T13:36:56;12.09;57.13
64997;SHT31;51545;51.568;6.998;2023-03-03T13:39:32;11.38;56.53
64997;SHT31;51545;51.568;6.998;2023-03-03T13:42:05;11.42;58.66
64997;SHT31;51545;51.568;6.998;2023-03-03T13:44:41;10.04;60.25
64997;SHT31;51545;51.568;6.998;2023-03-03T13:52:20;10.98;59.85
64997;SHT31;51545;51.568;6.998;2023-03-03T13:54:52;11.49;59.02
64997;SHT31;51545;51.568;6.998;2023-03-03T13:58:04;12.31;57.09
64997;SHT31;51545;51.568;6.998;2023-03-03T14:06:27;10.03;61.62
64997;SHT31;51545;51.568;6.998;2023-03-03T14:18:32;11.36;60.62
64997;SHT31;51545;51.568;6.998;2023-03-03T14:20:34;12.25;57.45
64997;SHT31;51545;51.568;6.998;2023-03-03T14:25:49;12.59;56.49
64997;SHT31;51545;51.568;6.998;2023-03-03T14:28:23;11.87;57.20
64997;SHT31;51545;51.568;6.998;2023-03-03T14:30:54;12.48;56.39
64997;SHT31;51545;51.568;6.998;2023-03-03T14:33:25;12.04;55.73
64997;SHT31;51545;51.568;6.998;2023-03-03T14:38:24;11.11;58.28
64997;SHT31;51545;51.568;6.998;2023-03-03T14:43:36;10.97;58.59
64997;SHT31;51545;51.568;6.998;2023-03-03T14:48:55;10.49;60.94
64997;SHT31;51545;51.568;6.998;2023-03-03T14:53:58;12.45;57.21
64997;SHT31;51545;51.568;6.998;2023-03-03T14:56:28;12.02;56.72
64997;SHT31;51545;51.568;6.998;2023-03-03T14:59:16;11.94;56.59
64997;SHT31;51545;51.568;6.998;2023-03-03T15:01:44;11.84;57.28
64997;SHT31;51545;51.568;6.998;2023-03-03T15:06:45;11.19;58.71
64997;SHT31;51545;51.568;6.998;2023-03-03T15:09:58;10.45;61.16
64997;SHT31;51545;51.568;6.998;2023-03-03T15:12:22;10.29;61.13
64997;SHT31;51545;51.568;6.998;2023-03-03T15:14:50;10.00;62.68
64997;SHT31;51545;51.568;6.998;2023-03-03T15:17:29;10.17;61.63
64997;SHT31;51545;51.568;6.998;2023-03-03T15:25:37;11.48;58.39
64997;SHT31;51545;51.568;6.998;2023-03-03T15:39:45;10.79;60.26
64997;SHT31;51545;51.568;6.998;2023-03-03T15:42:32;10.57;60.34
64997;SHT31;51545;51.568;6.998;2023-03-03T15:45:24;10.05;62.03
64997;SHT31;51545;51.568;6.998;2023-03-03T16:01:33;10.04;61.75
64997;SHT31;51545;51.568;6.998;2023-03-03T16:04:01;9.80;62.62
64997;SHT31;51545;51.568;6.998;2023-03-03T16:15:06;9.60;63.99
64997;SHT31;51545;51.568;6.998;2023-03-03T16:31:33;8.41;67.66
64997;SHT31;51545;51.568;6.998;2023-03-03T16:34:10;8.13;68.96
64997;SHT31;51545;51.568;6.998;2023-03-03T16:42:25;7.82;70.09
64997;SHT31;51545;51.568;6.998;2023-03-03T16:45:11;7.97;69.59
64997;SHT31;51545;51.568;6.998;2023-03-03T16:53:18;7.69;70.09
64997;SHT31;51545;51.568;6.998;2023-03-03T16:58:58;7.21;71.58
64997;SHT31;51545;51.568;6.998;2023-03-03T17:01:41;6.95;71.96
64997;SHT31;51545;51.568;6.998;2023-03-03T17:10:26;6.72;72.97
64997;SHT31;51545;51.568;6.998;2023-03-03T17:13:32;6.49;73.53
64997;SHT31;51545;51.568;6.998;2023-03-03T17:18:52;6.46;73.28
64997;SHT31;51545;51.568;6.998;2023-03-03T17:27:39;5.96;74.74
64997;SHT31;51545;51.568;6.998;2023-03-03T17:30:12;5.71;75.16
64997;SHT31;51545;51.568;6.998;2023-03-03T17:35:56;5.35;76.46
64997;SHT31;51545;51.568;6.998;2023-03-03T17:46:29;5.35;78.23
64997;SHT31;51545;51.568;6.998;2023-03-03T17:49:07;5.50;78.66
64997;SHT31;51545;51.568;6.998;2023-03-03T17:51:57;5.33;78.14
64997;SHT31;51545;51.568;6.998;2023-03-03T17:57:07;5.34;79.43
64997;SHT31;51545;51.568;6.998;2023-03-03T18:02:36;5.34;79.26
64997;SHT31;51545;51.568;6.998;2023-03-03T18:20:09;5.62;78.38
64997;SHT31;51545;51.568;6.998;2023-03-03T18:22:51;5.69;77.98
64997;SHT31;51545;51.568;6.998;2023-03-03T18:25:19;5.77;78.17
64997;SHT31;51545;51.568;6.998;2023-03-03T18:30:31;5.69;77.87
64997;SHT31;51545;51.568;6.998;2023-03-03T18:33:42;5.72;78.10
64997;SHT31;51545;51.568;6.998;2023-03-03T18:38:50;5.68;78.86
64997;SHT31;51545;51.568;6.998;2023-03-03T18:41:22;5.69;79.17
64997;SHT31;51545;51.568;6.998;2023-03-03T18:43:54;5.67;78.83
64997;SHT31;51545;51.568;6.998;2023-03-03T18:46:46;5.72;78.78
64997;SHT31;51545;51.568;6.998;2023-03-03T18:49:13;5.78;78.90
64997;SHT31;51545;51.568;6.998;2023-03-03T19:04:43;5.95;77.29
64997;SHT31;51545;51.568;6.998;2023-03-03T19:07:16;5.93;77.19
64997;SHT31;51545;51.568;6.998;2023-03-03T19:12:44;5.89;76.91
64997;SHT31;51545;51.568;6.998;2023-03-03T19:15:58;5.96;77.36
64997;SHT31;51545;51.568;6.998;2023-03-03T19:18:04;6.02;77.52
64997;SHT31;51545;51.568;6.998;2023-03-03T19:23:45;5.92;77.08
64997;SHT31;51545;51.568;6.998;2023-03-03T19:29:10;5.81;77.35
64997;SHT31;51545;51.568;6.998;2023-03-03T19:42:41;5.83;77.19
64997;SHT31;51545;51.568;6.998;2023-03-03T19:51:27;5.77;77.22
64997;SHT31;51545;51.568;6.998;2023-03-03T20:02:27;5.75;76.71
64997;SHT31;51545;51.568;6.998;2023-03-03T20:05:00;5.69;76.45
64997;SHT31;51545;51.568;6.998;2023-03-03T20:12:43;5.89;75.22
64997;SHT31;51545;51.568;6.998;2023-03-03T20:18:19;5.92;76.33
64997;SHT31;51545;51.568;6.998;2023-03-03T20:29:58;6.20;75.09
64997;SHT31;51545;51.568;6.998;2023-03-03T20:32:52;6.14;75.11
64997;SHT31;51545;51.568;6.998;2023-03-03T20:35:29;6.03;75.91
64997;SHT31;51545;51.568;6.998;2023-03-03T20:54:24;5.95;75.52
64997;SHT31;51545;51.568;6.998;2023-03-03T20:57:04;5.92;75.46
64997;SHT31;51545;51.568;6.998;2023-03-03T21:05:17;6.03;74.11
64997;SHT31;51545;51.568;6.998;2023-03-03T21:10:22;5.93;74.08
64997;SHT31;51545;51.568;6.998;2023-03-03T21:12:51;5.93;74.28
64997;SHT31;51545;51.568;6.998;2023-03-03T21:15:23;5.95;73.72
64997;SHT31;51545;51.568;6.998;2023-03-03T21:17:50;5.98;73.62
64997;SHT31;51545;51.568;6.998;2023-03-03T21:22:50;6.03;73.66
64997;SHT31;51545;51.568;6.998;2023-03-03T21:26:02;5.89;74.51
64997;SHT31;51545;51.568;6.998;2023-03-03T21:31:02;5.82;75.02
64997;SHT31;51545;51.568;6.998;2023-03-03T21:34:15;5.85;74.47
64997;SHT31;51545;51.568;6.998;2023-03-03T21:36:24;5.93;74.22
64997;SHT31;51545;51.568;6.998;2023-03-03T21:39:29;5.86;74.55
64997;SHT31;51545;51.568;6.998;2023-03-03T21:42:04;5.83;75.07
64997;SHT31;51545;51.568;6.998;2023-03-03T21:44:38;5.78;75.21
64997;SHT31;51545;51.568;6.998;2023-03-03T21:47:13;5.74;75.03
64997;SHT31;51545;51.568;6.998;2023-03-03T21:49:44;5.71;75.59
64997;SHT31;51545;51.568;6.998;2023-03-03T21:52:11;5.74;75.42
64997;SHT31;51545;51.568;6.998;2023-03-03T21:54:40;5.67;75.51
64997;SHT31;51545;51.568;6.998;2023-03-03T21:57:06;5.61;75.71
64997;SHT31;51545;51.568;6.998;2023-03-03T21:59:32;5.65;75.81
64997;SHT31;51545;51.568;6.998;2023-03-03T22:01:58;5.64;75.96
64997;SHT31;51545;51.568;6.998;2023-03-03T22:04:23;5.69;75.75
64997;SHT31;51545;51.568;6.998;2023-03-03T22:06:49;5.75;75.80
64997;SHT31;51545;51.568;6.998;2023-03-03T22:09:16;5.77;75.81
64997;SHT31;51545;51.568;6.998;2023-03-03T22:11:42;5.77;75.64
64997;SHT31;51545;51.568;6.998;2023-03-03T22:14:08;5.71;75.66
64997;SHT31;51545;51.568;6.998;2023-03-03T22:16:34;5.69;76.01
64997;SHT31;51545;51.568;6.998;2023-03-03T22:19:00;5.74;75.92
64997;SHT31;51545;51.568;6.998;2023-03-03T22:21:26;5.77;76.42
64997;SHT31;51545;51.568;6.998;2023-03-03T22:23:51;5.72;76.82
64997;SHT31;51545;51.568;6.998;2023-03-03T22:26:17;5.65;76.82
64997;SHT31;51545;51.568;6.998;2023-03-03T22:28:42;5.67;76.83
64997;SHT31;51545;51.568;6.998;2023-03-03T22:31:08;5.71;76.55
64997;SHT31;51545;51.568;6.998;2023-03-03T22:33:34;5.64;76.56
64997;SHT31;51545;51.568;6.998;2023-03-03T22:35:59;5.55;77.42
64997;SHT31;51545;51.568;6.998;2023-03-03T22:38:25;5.54;77.15
64997;SHT31;51545;51.568;6.998;2023-03-03T22:40:51;5.48;77.35
64997;SHT31;51545;51.568;6.998;2023-03-03T22:43:18;5.44;77.28
64997;SHT31;51545;51.568;6.998;2023-03-03T22:45:43;5.48;77.45
64997;SHT31;51545;51.568;6.998;2023-03-03T22:48:09;5.55;77.11
64997;SHT31;51545;51.568;6.998;2023-03-03T22:50:35;5.58;77.01
64997;SHT31;51545;51.568;6.998;2023-03-03T22:53:06;5.55;77.26
64997;SHT31;51545;51.568;6.998;2023-03-03T22:55:32;5.57;77.28
64997;SHT31;51545;51.568;6.998;2023-03-03T22:58:01;5.54;77.54
64997;SHT31;51545;51.568;6.998;2023-03-03T23:00:30;5.55;77.32
64997;SHT31;51545;51.568;6.998;2023-03-03T23:02:56;5.55;77.44
64997;SHT31;51545;51.568;6.998;2023-03-03T23:05:22;5.51;77.90
64997;SHT31;51545;51.568;6.998;2023-03-03T23:07:47;5.52;77.30
64997;SHT31;51545;51.568;6.998;2023-03-03T23:10:13;5.54;76.91
64997;SHT31;51545;51.568;6.998;2023-03-03T23:12:39;5.50;76.86
64997;SHT31;51545;51.568;6.998;2023-03-03T23:15:05;5.51;76.65
64997;SHT31;51545;51.568;6.998;2023-03-03T23:17:38;5.52;76.83
64997;SHT31;51545;51.568;6.998;2023-03-03T23:20:05;5.55;76.96
64997;SHT31;51545;51.568;6.998;2023-03-03T23:22:31;5.44;77.02
64997;SHT31;51545;51.568;6.998;2023-03-03T23:24:57;5.44;77.49
64997;SHT31;51545;51.568;6.998;2023-03-03T23:27:23;5.40;77.72
64997;SHT31;51545;51.568;6.998;2023-03-03T23:29:49;5.43;77.51
64997;SHT31;51545;51.568;6.998;2023-03-03T23:32:16;5.48;77.62
64997;SHT31;51545;51.568;6.998;2023-03-03T23:34:41;5.48;77.68
64997;SHT31;51545;51.568;6.998;2023-03-03T23:37:07;5.47;77.69
64997;SHT31;51545;51.568;6.998;2023-03-03T23:39:32;5.54;77.32
64997;SHT31;51545;51.568;6.998;2023-03-03T23:41:58;5.55;77.21